sensor_id;sensor_type;location;lat;lon;timestamp;temperature;humidity
20750;DHT22;10535;50.664;4.564;2023-04-01T00:01:35;10.10;99.90
20750;DHT22;10535;50.664;4.564;2023-04-01T00:04:00;10.00;99.90
20750;DHT22;10535;50.664;4.564;2023-04-01T00:06:27;10.00;99.90
20750;DHT22;10535;50.664;4.564;2023-04-01T00:08:53;10.00;99.90
20750;DHT22;10535;50.664;4.564;2023-04-01T00:11:19;10.00;99.90
20750;DHT22;10535;50.664;4.564;2023-04-01T00:13:46;10.00;99.90
20750;DHT22;10535;50.664;4.564;2023-04-01T00:16:12;10.00;99.90
20750;DHT22;10535;50.664;4.564;2023-04-01T00:18:38;10.00;99.90
20750;DHT22;10535;50.664;4.564;2023-04-01T00:21:04;10.10;99.90
20750;DHT22;10535;50.664;4.564;2023-04-01T00:23:30;10.10;99.90
20750;DHT22;10535;50.664;4.564;2023-04-01T00:25:58;10.10;99.90
20750;DHT22;10535;50.664;4.564;2023-04-01T00:28:24;10.10;99.90
20750;DHT22;10535;50.664;4.564;2023-04-01T00:30:50;10.00;99.90
20750;DHT22;10535;50.664;4.564;2023-04-01T00:33:16;10.00;99.90
20750;DHT22;10535;50.664;4.564;2023-04-01T00:35:42;10.00;99.90
20750;DHT22;10535;50.664;4.564;2023-04-01T00:38:07;10.10;99.90
20750;DHT22;10535;50.664;4.564;2023-04-01T00:40:57;10.10;99.90
20750;DHT22;10535;50.664;4.564;2023-04-01T00:43:23;10.30;99.90
20750;DHT22;10535;50.664;4.564;2023-04-01T00:45:49;10.10;99.90
20750;DHT22;10535;50.664;4.564;2023-04-01T00:48:22;10.20;99.90
20750;DHT22;10535;50.664;4.564;2023-04-01T00:50:54;10.10;99.90
20750;DHT22;10535;50.664;4.564;2023-04-01T00:53:23;10.00;99.90
20750;DHT22;10535;50.664;4.564;2023-04-01T00:56:10;10.00;99.90
20750;DHT22;10535;50.664;4.564;2023-04-01T00:58:40;10.20;99.90
20750;DHT22;10535;50.664;4.564;2023-04-01T01:01:09;10.10;99.90
20750;DHT22;10535;50.664;4.564;2023-04-01T01:03:36;10.20;99.90
20750;DHT22;10535;50.664;4.564;2023-04-01T01:11:22;10.10;99.90
20750;DHT22;10535;50.664;4.564;2023-04-01T01:16:44;10.00;99.90
20750;DHT22;10535;50.664;4.564;2023-04-01T01:22:36;9.90;99.90
20750;DHT22;10535;50.664;4.564;2023-04-01T01:27:49;10.00;99.90
20750;DHT22;10535;50.664;4.564;2023-04-01T01:30:35;10.00;99.90
20750;DHT22;10535;50.664;4.564;2023-04-01T01:35:49;10.00;99.90
20750;DHT22;10535;50.664;4.564;2023-04-01T01:38:18;10.00;99.90
20750;DHT22;10535;50.664;4.564;2023-04-01T01:40:48;9.90;99.90
20750;DHT22;10535;50.664;4.564;2023-04-01T01:43:19;10.00;99.90
20750;DHT22;10535;50.664;4.564;2023-04-01T01:45:49;9.90;99.90
20750;DHT22;10535;50.664;4.564;2023-04-01T01:48:17;10.00;99.90
20750;DHT22;10535;50.664;4.564;2023-04-01T01:50:44;10.10;99.90
20750;DHT22;10535;50.664;4.564;2023-04-01T01:53:12;10.10;99.90
20750;DHT22;10535;50.664;4.564;2023-04-01T01:55:41;10.20;99.90
20750;DHT22;10535;50.664;4.564;2023-04-01T01:58:27;10.20;99.90
20750;DHT22;10535;50.664;4.564;2023-04-01T02:00:58;10.20;99.90
20750;DHT22;10535;50.664;4.564;2023-04-01T02:03:27;10.30;99.90
20750;DHT22;10535;50.664;4.564;2023-04-01T02:05:56;10.20;99.90
20750;DHT22;10535;50.664;4.564;2023-04-01T02:08:39;10.20;99.90
20750;DHT22;10535;50.664;4.564;2023-04-01T02:11:11;10.20;99.90
20750;DHT22;10535;50.664;4.564;2023-04-01T02:13:48;10.10;99.90
20750;DHT22;10535;50.664;4.564;2023-04-01T02:16:20;10.20;99.90
20750;DHT22;10535;50.664;4.564;2023-04-01T02:18:49;10.10;99.90
20750;DHT22;10535;50.664;4.564;2023-04-01T02:21:17;10.10;99.90
20750;DHT22;10535;50.664;4.564;2023-04-01T02:23:45;10.10;99.90
20750;DHT22;10535;50.664;4.564;2023-04-01T02:26:14;10.00;99.90
20750;DHT22;10535;50.664;4.564;2023-04-01T02:28:41;10.10;99.90
20750;DHT22;10535;50.664;4.564;2023-04-01T02:31:09;10.10;99.90
20750;DHT22;10535;50.664;4.564;2023-04-01T02:33:36;10.10;99.90
20750;DHT22;10535;50.664;4.564;2023-04-01T02:36:03;10.20;99.90
20750;DHT22;10535;50.664;4.564;2023-04-01T02:38:29;10.20;99.90
20750;DHT22;10535;50.664;4.564;2023-04-01T02:41:00;10.20;99.90
20750;DHT22;10535;50.664;4.564;2023-04-01T02:43:28;10.20;99.90
20750;DHT22;10535;50.664;4.564;2023-04-01T02:45:53;10.30;99.90
20750;DHT22;10535;50.664;4.564;2023-04-01T02:48:19;10.20;99.90
20750;DHT22;10535;50.664;4.564;2023-04-01T02:50:45;10.30;99.90
20750;DHT22;10535;50.664;4.564;2023-04-01T02:53:11;10.20;99.90
20750;DHT22;10535;50.664;4.564;2023-04-01T02:55:37;10.20;99.90
20750;DHT22;10535;50.664;4.564;2023-04-01T02:58:03;10.30;99.90
20750;DHT22;10535;50.664;4.564;2023-04-01T03:00:29;10.00;99.90
20750;DHT22;10535;50.664;4.564;2023-04-01T03:02:54;10.00;99.90
20750;DHT22;10535;50.664;4.564;2023-04-01T03:05:21;10.00;99.90
20750;DHT22;10535;50.664;4.564;2023-04-01T03:07:47;10.10;99.90
20750;DHT22;10535;50.664;4.564;2023-04-01T03:10:12;10.10;99.90
20750;DHT22;10535;50.664;4.564;2023-04-01T03:12:38;10.20;99.90
20750;DHT22;10535;50.664;4.564;2023-04-01T03:15:04;10.20;99.90
20750;DHT22;10535;50.664;4.564;2023-04-01T03:17:30;10.00;99.90
20750;DHT22;10535;50.664;4.564;2023-04-01T03:19:56;10.00;99.90
20750;DHT22;10535;50.664;4.564;2023-04-01T03:22:21;10.10;99.90
20750;DHT22;10535;50.664;4.564;2023-04-01T03:24:48;10.10;99.90
20750;DHT22;10535;50.664;4.564;2023-04-01T03:27:14;10.10;99.90
20750;DHT22;10535;50.664;4.564;2023-04-01T03:29:39;10.10;99.90
20750;DHT22;10535;50.664;4.564;2023-04-01T03:32:05;10.00;99.90
20750;DHT22;10535;50.664;4.564;2023-04-01T03:34:32;10.00;99.90
20750;DHT22;10535;50.664;4.564;2023-04-01T03:36:57;9.90;99.90
20750;DHT22;10535;50.664;4.564;2023-04-01T03:39:23;9.80;99.90
20750;DHT22;10535;50.664;4.564;2023-04-01T03:41:49;9.80;99.90
20750;DHT22;10535;50.664;4.564;2023-04-01T03:44:15;9.70;99.90
20750;DHT22;10535;50.664;4.564;2023-04-01T03:46:40;9.80;99.90
20750;DHT22;10535;50.664;4.564;2023-04-01T03:49:07;9.70;99.90
20750;DHT22;10535;50.664;4.564;2023-04-01T03:51:41;9.50;99.90
20750;DHT22;10535;50.664;4.564;2023-04-01T03:54:07;9.60;99.90
20750;DHT22;10535;50.664;4.564;2023-04-01T03:56:33;9.50;99.90
20750;DHT22;10535;50.664;4.564;2023-04-01T03:59:03;9.50;99.90
20750;DHT22;10535;50.664;4.564;2023-04-01T04:01:29;9.50;99.90
20750;DHT22;10535;50.664;4.564;2023-04-01T04:03:55;9.50;99.90
20750;DHT22;10535;50.664;4.564;2023-04-01T04:06:22;9.40;99.90
20750;DHT22;10535;50.664;4.564;2023-04-01T04:08:48;9.50;99.90
20750;DHT22;10535;50.664;4.564;2023-04-01T04:11:14;9.50;99.90
20750;DHT22;10535;50.664;4.564;2023-04-01T04:13:39;9.60;99.90
20750;DHT22;10535;50.664;4.564;2023-04-01T04:16:05;9.60;99.90
20750;DHT22;10535;50.664;4.564;2023-04-01T04:18:31;9.60;99.90
20750;DHT22;10535;50.664;4.564;2023-04-01T04:20:57;9.60;99.90
20750;DHT22;10535;50.664;4.564;2023-04-01T04:23:23;9.60;99.90
20750;DHT22;10535;50.664;4.564;2023-04-01T04:26:04;9.70;99.90
20750;DHT22;10535;50.664;4.564;2023-04-01T04:28:30;9.70;99.90
20750;DHT22;10535;50.664;4.564;2023-04-01T04:30:57;9.80;99.90
20750;DHT22;10535;50.664;4.564;2023-04-01T04:33:24;9.70;99.90
20750;DHT22;10535;50.664;4.564;2023-04-01T04:35:49;9.60;99.90
20750;DHT22;10535;50.664;4.564;2023-04-01T04:38:15;9.70;99.90
20750;DHT22;10535;50.664;4.564;2023-04-01T04:40:42;9.70;99.90
20750;DHT22;10535;50.664;4.564;2023-04-01T04:43:10;9.60;99.90
20750;DHT22;10535;50.664;4.564;2023-04-01T04:45:36;9.70;99.90
20750;DHT22;10535;50.664;4.564;2023-04-01T04:48:02;9.70;99.90
20750;DHT22;10535;50.664;4.564;2023-04-01T04:50:28;9.60;99.90
20750;DHT22;10535;50.664;4.564;2023-04-01T04:52:53;9.70;99.90
20750;DHT22;10535;50.664;4.564;2023-04-01T04:55:19;9.70;99.90
20750;DHT22;10535;50.664;4.564;2023-04-01T04:57:45;9.70;99.90
20750;DHT22;10535;50.664;4.564;2023-04-01T05:00:11;9.60;99.90
20750;DHT22;10535;50.664;4.564;2023-04-01T05:02:37;9.60;99.90
20750;DHT22;10535;50.664;4.564;2023-04-01T05:05:03;9.60;99.90
20750;DHT22;10535;50.664;4.564;2023-04-01T05:07:29;9.60;99.90
20750;DHT22;10535;50.664;4.564;2023-04-01T05:09:55;9.70;99.90
20750;DHT22;10535;50.664;4.564;2023-04-01T05:12:20;9.70;99.90
20750;DHT22;10535;50.664;4.564;2023-04-01T05:14:46;9.70;99.90
20750;DHT22;10535;50.664;4.564;2023-04-01T05:17:12;9.70;99.90
20750;DHT22;10535;50.664;4.564;2023-04-01T05:19:38;9.80;99.90
20750;DHT22;10535;50.664;4.564;2023-04-01T05:22:05;9.70;99.90
20750;DHT22;10535;50.664;4.564;2023-04-01T05:24:31;9.70;99.90
20750;DHT22;10535;50.664;4.564;2023-04-01T05:26:57;9.70;99.90
20750;DHT22;10535;50.664;4.564;2023-04-01T05:29:23;9.60;99.90
20750;DHT22;10535;50.664;4.564;2023-04-01T05:31:49;9.60;99.90
20750;DHT22;10535;50.664;4.564;2023-04-01T05:34:14;9.60;99.90
20750;DHT22;10535;50.664;4.564;2023-04-01T05:36:40;9.50;99.90
20750;DHT22;10535;50.664;4.564;2023-04-01T05:39:07;9.60;99.90
20750;DHT22;10535;50.664;4.564;2023-04-01T05:41:35;9.60;99.90
20750;DHT22;10535;50.664;4.564;2023-04-01T05:44:01;9.50;99.90
20750;DHT22;10535;50.664;4.564;2023-04-01T05:46:27;9.50;99.90
20750;DHT22;10535;50.664;4.564;2023-04-01T05:48:52;9.40;99.90
20750;DHT22;10535;50.664;4.564;2023-04-01T05:51:18;9.50;99.90
20750;DHT22;10535;50.664;4.564;2023-04-01T05:53:43;9.50;99.90
20750;DHT22;10535;50.664;4.564;2023-04-01T05:56:09;9.60;99.90
20750;DHT22;10535;50.664;4.564;2023-04-01T05:58:36;9.60;99.90
20750;DHT22;10535;50.664;4.564;2023-04-01T06:01:07;9.70;99.90
20750;DHT22;10535;50.664;4.564;2023-04-01T06:03:35;9.60;99.90
20750;DHT22;10535;50.664;4.564;2023-04-01T06:06:02;9.50;99.90
20750;DHT22;10535;50.664;4.564;2023-04-01T06:08:35;9.50;99.90
20750;DHT22;10535;50.664;4.564;2023-04-01T06:17:13;9.60;99.90
20750;DHT22;10535;50.664;4.564;2023-04-01T06:30:58;9.40;99.90
20750;DHT22;10535;50.664;4.564;2023-04-01T06:50:26;9.50;99.90
20750;DHT22;10535;50.664;4.564;2023-04-01T06:56:11;9.50;99.90
20750;DHT22;10535;50.664;4.564;2023-04-01T06:58:53;9.50;99.90
20750;DHT22;10535;50.664;4.564;2023-04-01T07:01:42;9.40;99.90
20750;DHT22;10535;50.664;4.564;2023-04-01T07:06:52;9.40;99.90
20750;DHT22;10535;50.664;4.564;2023-04-01T07:09:51;9.60;99.90
20750;DHT22;10535;50.664;4.564;2023-04-01T07:12:41;9.70;99.90
20750;DHT22;10535;50.664;4.564;2023-04-01T07:15:35;9.70;99.90
20750;DHT22;10535;50.664;4.564;2023-04-01T07:18:49;9.90;99.90
20750;DHT22;10535;50.664;4.564;2023-04-01T07:20:50;10.00;99.90
20750;DHT22;10535;50.664;4.564;2023-04-01T07:23:28;10.10;99.90
20750;DHT22;10535;50.664;4.564;2023-04-01T07:26:06;10.10;99.90
20750;DHT22;10535;50.664;4.564;2023-04-01T07:28:36;10.00;99.90
20750;DHT22;10535;50.664;4.564;2023-04-01T07:52:12;10.00;99.90
20750;DHT22;10535;50.664;4.564;2023-04-01T07:54:53;10.00;99.90
20750;DHT22;10535;50.664;4.564;2023-04-01T07:58:17;10.00;99.90
20750;DHT22;10535;50.664;4.564;2023-04-01T08:06:14;10.10;99.90
20750;DHT22;10535;50.664;4.564;2023-04-01T08:14:19;10.40;99.90
20750;DHT22;10535;50.664;4.564;2023-04-01T08:16:49;10.50;99.90
20750;DHT22;10535;50.664;4.564;2023-04-01T08:22:23;10.40;99.90
20750;DHT22;10535;50.664;4.564;2023-04-01T08:24:51;10.40;99.90
20750;DHT22;10535;50.664;4.564;2023-04-01T08:27:33;10.40;99.90
20750;DHT22;10535;50.664;4.564;2023-04-01T08:32:34;10.50;99.90
20750;DHT22;10535;50.664;4.564;2023-04-01T08:35:14;10.30;99.90
20750;DHT22;10535;50.664;4.564;2023-04-01T08:37:43;10.30;99.90
20750;DHT22;10535;50.664;4.564;2023-04-01T08:40:27;10.60;99.90
20750;DHT22;10535;50.664;4.564;2023-04-01T08:45:54;11.00;99.90
20750;DHT22;10535;50.664;4.564;2023-04-01T08:56:42;10.70;99.90
20750;DHT22;10535;50.664;4.564;2023-04-01T09:02:39;10.50;99.90
20750;DHT22;10535;50.664;4.564;2023-04-01T09:26:29;10.90;99.90
20750;DHT22;10535;50.664;4.564;2023-04-01T09:45:19;10.70;99.90
20750;DHT22;10535;50.664;4.564;2023-04-01T10:04:44;11.40;99.90
20750;DHT22;10535;50.664;4.564;2023-04-01T10:27:30;11.80;99.90
20750;DHT22;10535;50.664;4.564;2023-04-01T10:30:19;12.00;99.90
20750;DHT22;10535;50.664;4.564;2023-04-01T10:57:38;12.70;99.90
20750;DHT22;10535;50.664;4.564;2023-04-01T11:00:48;12.50;99.90
20750;DHT22;10535;50.664;4.564;2023-04-01T11:22:07;11.60;99.90
20750;DHT22;10535;50.664;4.564;2023-04-01T11:27:28;11.50;99.90
20750;DHT22;10535;50.664;4.564;2023-04-01T11:30:20;11.70;99.90
20750;DHT22;10535;50.664;4.564;2023-04-01T11:49:21;12.10;99.90
20750;DHT22;10535;50.664;4.564;2023-04-01T11:52:15;12.20;99.90
20750;DHT22;10535;50.664;4.564;2023-04-01T11:55:02;12.50;99.90
20750;DHT22;10535;50.664;4.564;2023-04-01T12:05:43;11.60;99.90
20750;DHT22;10535;50.664;4.564;2023-04-01T12:08:36;11.60;99.90
20750;DHT22;10535;50.664;4.564;2023-04-01T12:17:09;11.50;99.90
20750;DHT22;10535;50.664;4.564;2023-04-01T12:22:34;12.50;99.90
20750;DHT22;10535;50.664;4.564;2023-04-01T12:25:06;12.70;99.90
20750;DHT22;10535;50.664;4.564;2023-04-01T12:27:44;12.50;99.90
20750;DHT22;10535;50.664;4.564;2023-04-01T12:49:24;12.30;99.90
20750;DHT22;10535;50.664;4.564;2023-04-01T12:51:59;12.20;99.90
20750;DHT22;10535;50.664;4.564;2023-04-01T13:17:02;11.10;99.90
20750;DHT22;10535;50.664;4.564;2023-04-01T13:19:57;11.00;99.90
20750;DHT22;10535;50.664;4.564;2023-04-01T13:30:54;11.70;99.90
20750;DHT22;10535;50.664;4.564;2023-04-01T13:37:02;11.10;99.90
20750;DHT22;10535;50.664;4.564;2023-04-01T13:39:45;11.10;99.90
20750;DHT22;10535;50.664;4.564;2023-04-01T13:45:26;11.20;99.90
20750;DHT22;10535;50.664;4.564;2023-04-01T13:50:55;11.30;99.90
20750;DHT22;10535;50.664;4.564;2023-04-01T14:02:19;11.10;99.90
20750;DHT22;10535;50.664;4.564;2023-04-01T14:29:01;10.00;99.90
20750;DHT22;10535;50.664;4.564;2023-04-01T14:31:50;10.10;99.90
20750;DHT22;10535;50.664;4.564;2023-04-01T14:34:33;10.30;99.90
20750;DHT22;10535;50.664;4.564;2023-04-01T14:48:58;10.60;99.90
20750;DHT22;10535;50.664;4.564;2023-04-01T14:54:20;10.50;99.90
20750;DHT22;10535;50.664;4.564;2023-04-01T14:57:03;10.40;99.90
20750;DHT22;10535;50.664;4.564;2023-04-01T14:59:29;10.60;99.90
20750;DHT22;10535;50.664;4.564;2023-04-01T15:02:11;10.70;99.90
20750;DHT22;10535;50.664;4.564;2023-04-01T15:07:43;10.80;99.90
20750;DHT22;10535;50.664;4.564;2023-04-01T15:15:47;11.00;99.90
20750;DHT22;10535;50.664;4.564;2023-04-01T15:18:31;10.90;99.90
20750;DHT22;10535;50.664;4.564;2023-04-01T15:21:15;10.70;99.90
20750;DHT22;10535;50.664;4.564;2023-04-01T15:37:54;10.50;99.90
20750;DHT22;10535;50.664;4.564;2023-04-01T15:40:29;10.60;99.90
20750;DHT22;10535;50.664;4.564;2023-04-01T15:51:46;10.50;99.90
20750;DHT22;10535;50.664;4.564;2023-04-01T16:00:05;10.40;99.90
20750;DHT22;10535;50.664;4.564;2023-04-01T16:03:00;10.20;99.90
20750;DHT22;10535;50.664;4.564;2023-04-01T16:05:41;10.30;99.90
20750;DHT22;10535;50.664;4.564;2023-04-01T16:14:32;10.00;99.90
20750;DHT22;10535;50.664;4.564;2023-04-01T16:17:15;9.90;99.90
20750;DHT22;10535;50.664;4.564;2023-04-01T16:19:53;10.00;99.90
20750;DHT22;10535;50.664;4.564;2023-04-01T16:25:14;10.10;99.90
20750;DHT22;10535;50.664;4.564;2023-04-01T16:28:16;10.20;99.90
20750;DHT22;10535;50.664;4.564;2023-04-01T16:36:43;10.00;99.90
20750;DHT22;10535;50.664;4.564;2023-04-01T16:48:17;9.70;99.90
20750;DHT22;10535;50.664;4.564;2023-04-01T16:51:02;9.50;99.90
20750;DHT22;10535;50.664;4.564;2023-04-01T16:53:41;9.50;99.90
20750;DHT22;10535;50.664;4.564;2023-04-01T16:56:20;9.50;99.90
20750;DHT22;10535;50.664;4.564;2023-04-01T17:01:26;9.60;99.90
20750;DHT22;10535;50.664;4.564;2023-04-01T17:03:58;9.50;99.90
20750;DHT22;10535;50.664;4.564;2023-04-01T17:06:45;9.40;99.90
20750;DHT22;10535;50.664;4.564;2023-04-01T17:09:30;9.40;99.90
20750;DHT22;10535;50.664;4.564;2023-04-01T17:15:02;9.40;99.90
20750;DHT22;10535;50.664;4.564;2023-04-01T17:18:06;9.30;99.90
20750;DHT22;10535;50.664;4.564;2023-04-01T17:26:42;9.50;99.90
20750;DHT22;10535;50.664;4.564;2023-04-01T17:29:35;9.60;99.90
20750;DHT22;10535;50.664;4.564;2023-04-01T17:32:11;9.50;99.90
20750;DHT22;10535;50.664;4.564;2023-04-01T17:35:02;9.50;99.90
20750;DHT22;10535;50.664;4.564;2023-04-01T17:42:42;9.50;99.90
20750;DHT22;10535;50.664;4.564;2023-04-01T17:45:21;9.50;99.90
20750;DHT22;10535;50.664;4.564;2023-04-01T17:47:58;9.50;99.90
20750;DHT22;10535;50.664;4.564;2023-04-01T17:51:09;9.30;99.90
20750;DHT22;10535;50.664;4.564;2023-04-01T18:01:38;9.50;99.90
20750;DHT22;10535;50.664;4.564;2023-04-01T18:10:26;9.40;99.90
20750;DHT22;10535;50.664;4.564;2023-04-01T18:21:44;9.30;99.90
20750;DHT22;10535;50.664;4.564;2023-04-01T18:26:38;9.40;99.90
20750;DHT22;10535;50.664;4.564;2023-04-01T18:31:55;9.30;99.90
20750;DHT22;10535;50.664;4.564;2023-04-01T18:37:31;9.20;99.90
20750;DHT22;10535;50.664;4.564;2023-04-01T18:43:01;9.10;99.90
20750;DHT22;10535;50.664;4.564;2023-04-01T18:45:35;9.30;99.90
20750;DHT22;10535;50.664;4.564;2023-04-01T18:51:03;9.20;99.90
20750;DHT22;10535;50.664;4.564;2023-04-01T18:56:29;9.30;99.90
20750;DHT22;10535;50.664;4.564;2023-04-01T19:02:04;9.40;99.90
20750;DHT22;10535;50.664;4.564;2023-04-01T19:07:42;9.30;99.90
20750;DHT22;10535;50.664;4.564;2023-04-01T19:16:14;9.20;99.90
20750;DHT22;10535;50.664;4.564;2023-04-01T19:18:50;9.20;99.90
20750;DHT22;10535;50.664;4.564;2023-04-01T19:21:21;9.30;99.90
20750;DHT22;10535;50.664;4.564;2023-04-01T19:27:25;9.30;99.90
20750;DHT22;10535;50.664;4.564;2023-04-01T19:33:06;9.20;99.90
20750;DHT22;10535;50.664;4.564;2023-04-01T19:36:27;9.20;99.90
20750;DHT22;10535;50.664;4.564;2023-04-01T19:38:43;9.20;99.90
20750;DHT22;10535;50.664;4.564;2023-04-01T19:52:46;8.90;99.90
20750;DHT22;10535;50.664;4.564;2023-04-01T19:55:50;9.10;99.90
20750;DHT22;10535;50.664;4.564;2023-04-01T19:58:26;8.90;99.90
20750;DHT22;10535;50.664;4.564;2023-04-01T20:00:58;8.90;99.90
20750;DHT22;10535;50.664;4.564;2023-04-01T20:03:41;9.00;99.90
20750;DHT22;10535;50.664;4.564;2023-04-01T20:06:51;9.30;99.90
20750;DHT22;10535;50.664;4.564;2023-04-01T20:17:46;9.10;99.90
20750;DHT22;10535;50.664;4.564;2023-04-01T20:20:20;9.10;99.90
20750;DHT22;10535;50.664;4.564;2023-04-01T20:23:06;9.00;99.90
20750;DHT22;10535;50.664;4.564;2023-04-01T20:25:53;9.00;99.90
20750;DHT22;10535;50.664;4.564;2023-04-01T20:29:07;9.30;99.90
20750;DHT22;10535;50.664;4.564;2023-04-01T20:31:44;9.10;99.90
20750;DHT22;10535;50.664;4.564;2023-04-01T20:37:42;9.20;99.90
20750;DHT22;10535;50.664;4.564;2023-04-01T20:43:22;9.10;99.90
20750;DHT22;10535;50.664;4.564;2023-04-01T20:51:29;9.20;99.90
20750;DHT22;10535;50.664;4.564;2023-04-01T20:57:18;9.10;99.90
20750;DHT22;10535;50.664;4.564;2023-04-01T21:02:36;9.00;99.90
20750;DHT22;10535;50.664;4.564;2023-04-01T21:14:06;9.20;99.90
20750;DHT22;10535;50.664;4.564;2023-04-01T21:16:43;9.10;99.90
20750;DHT22;10535;50.664;4.564;2023-04-01T21:19:16;9.10;99.90
20750;DHT22;10535;50.664;4.564;2023-04-01T21:33:16;9.30;99.90
20750;DHT22;10535;50.664;4.564;2023-04-01T21:41:53;9.20;99.90
20750;DHT22;10535;50.664;4.564;2023-04-01T22:00:24;9.40;99.90
20750;DHT22;10535;50.664;4.564;2023-04-01T22:05:56;9.40;99.90
20750;DHT22;10535;50.664;4.564;2023-04-01T22:17:00;9.40;99.90
20750;DHT22;10535;50.664;4.564;2023-04-01T22:22:45;9.50;99.90
20750;DHT22;10535;50.664;4.564;2023-04-01T22:25:21;9.50;99.90
20750;DHT22;10535;50.664;4.564;2023-04-01T22:28:11;9.50;99.90
20750;DHT22;10535;50.664;4.564;2023-04-01T22:30:52;9.50;99.90
20750;DHT22;10535;50.664;4.564;2023-04-01T22:33:22;9.50;99.90
20750;DHT22;10535;50.664;4.564;2023-04-01T22:41:36;9.60;99.90
20750;DHT22;10535;50.664;4.564;2023-04-01T22:44:05;9.60;99.90
20750;DHT22;10535;50.664;4.564;2023-04-01T22:49:26;9.60;99.90
20750;DHT22;10535;50.664;4.564;2023-04-01T22:51:59;9.60;99.90
20750;DHT22;10535;50.664;4.564;2023-04-01T22:54:32;9.70;99.90
20750;DHT22;10535;50.664;4.564;2023-04-01T23:00:05;9.60;99.90
20750;DHT22;10535;50.664;4.564;2023-04-01T23:05:28;9.30;99.90
20750;DHT22;10535;50.664;4.564;2023-04-01T23:11:02;9.20;99.90
20750;DHT22;10535;50.664;4.564;2023-04-01T23:13:41;9.10;99.90
20750;DHT22;10535;50.664;4.564;2023-04-01T23:16:10;9.10;99.90
20750;DHT22;10535;50.664;4.564;2023-04-01T23:18:58;9.00;99.90
20750;DHT22;10535;50.664;4.564;2023-04-01T23:21:44;9.00;99.90
20750;DHT22;10535;50.664;4.564;2023-04-01T23:24:37;9.10;99.90
20750;DHT22;10535;50.664;4.564;2023-04-01T23:27:14;9.10;99.90
20750;DHT22;10535;50.664;4.564;2023-04-01T23:29:42;9.10;99.90
20750;DHT22;10535;50.664;4.564;2023-04-01T23:32:19;9.10;99.90
20750;DHT22;10535;50.664;4.564;2023-04-01T23:34:55;9.30;99.90
20750;DHT22;10535;50.664;4.564;2023-04-01T23:37:23;9.30;99.90
20750;DHT22;10535;50.664;4.564;2023-04-01T23:39:53;9.30;99.90
20750;DHT22;10535;50.664;4.564;2023-04-01T23:44:49;9.10;99.90
20750;DHT22;10535;50.664;4.564;2023-04-01T23:47:26;9.00;99.90
20750;DHT22;10535;50.664;4.564;2023-04-01T23:49:57;9.00;99.90
20750;DHT22;10535;50.664;4.564;2023-04-01T23:52:30;8.80;99.90
20750;DHT22;10535;50.664;4.564;2023-04-01T23:54:59;8.80;99.90
20750;DHT22;10535;50.664;4.564;2023-04-01T23:57:34;8.80;99.90
